Musselfork, Missouri
Current Conditions -  °F | °C
As of 8:15 AM on Friday 31 Oct 2014 (Local Time) from KVER Reporting Station
Clear Clear  
Wind Chill: 28°   Ceiling: Unl
Heat Index: 38°   Visibility: 10mi
Dew Point: 26°   Wind: 18mph
Humidity: 61%   Direction: 340°NNW
Pressure: 30.36"   Gusts: 22mph
Location:  39.4953°N, 92.9281°W
Report Text: KVER 311315Z AUTO 34016G19KT 10SM CLR 03/M04 A3036 RMK AO2 T00321036
Loading
Personal Weather Stations






























Interactive Weather Map
Tropical Storm Tracking
New forecast layout! Learn more

10-Day Weather Forecast

Advertisements
Track Severe Weather on mobile